Time;durP1;ratioP1;P1;durP2;ratioP2;P2;SDS_P1;SDS_P2;PMS_P1;PMS_P2;Temp;Humidity;BMP_temperature;BMP_pressure;BME280_temperature;BME280_humidity;BME280_pressure;Samples;Min_cycle;Max_cycle;Signal;HPM_P1;HPM_P2
2022/04/10 00:00:25;;;;;;;;;50.50;43.00;;;;;5.24;90.64;98952.66;6275967;20;2828581;-58
2022/04/10 00:02:54;;;;;;;;;50.67;42.33;;;;;5.29;90.74;98955.91;6281153;20;2863826;-58
2022/04/10 00:05:23;;;;;;;;;36.50;32.50;;;;;5.43;88.00;98952.56;6310342;20;2852448;-58
2022/04/10 00:07:52;;;;;;;;;27.00;25.00;;;;;5.98;83.31;98954.06;6279751;20;2847134;-59
2022/04/10 00:10:21;;;;;;;;;27.50;20.00;;;;;5.97;82.13;98968.34;6279271;20;2839839;-58
2022/04/10 00:12:49;;;;;;;;;23.50;22.50;;;;;6.27;80.48;98960.50;6279167;20;2500432;-58
2022/04/10 00:15:17;;;;;;;;;27.50;23.50;;;;;5.81;82.43;98963.81;6283278;20;2842087;-58
2022/04/10 00:17:46;;;;;;;;;23.67;20.33;;;;;5.90;80.94;98954.50;6280347;20;3560781;-57
2022/04/10 00:20:15;;;;;;;;;23.67;18.00;;;;;5.67;81.97;98951.25;6313072;20;3545110;-58
2022/04/10 00:22:47;;;;;;;;;26.33;20.00;;;;;5.69;81.71;98953.84;6291642;20;3566886;-59
2022/04/10 00:25:19;;;;;;;;;16.67;16.00;;;;;5.93;80.85;98955.22;6282580;20;3554464;-58
2022/04/10 00:27:48;;;;;;;;;19.33;18.00;;;;;5.80;80.82;98946.13;6317213;20;3563280;-58
2022/04/10 00:30:18;;;;;;;;;21.00;16.00;;;;;5.56;81.49;98935.00;6312704;20;3558620;-59
2022/04/10 00:32:47;;;;;;;;;18.33;15.67;;;;;5.69;81.75;98937.88;6316439;20;3544136;-58
2022/04/10 00:35:15;;;;;;;;;18.67;14.67;;;;;6.02;80.60;98942.31;6314377;20;3545071;-63
2022/04/10 00:37:46;;;;;;;;;18.17;14.67;;;;;6.09;79.56;98944.56;6339758;20;2829611;-63
2022/04/10 00:40:14;;;;;;;;;16.67;14.00;;;;;5.93;79.37;98941.88;6313688;20;2815927;-63
2022/04/10 00:42:49;;;;;;;;;12.00;12.00;;;;;5.87;80.30;98936.88;6312192;20;2795166;-63
2022/04/10 00:45:20;;;;;;;;;12.50;11.00;;;;;5.98;79.99;98938.09;6281372;20;2785207;-63
2022/04/10 00:47:49;;;;;;;;;14.33;11.00;;;;;5.59;80.85;98925.97;6283278;20;2800307;-63
2022/04/10 00:50:20;;;;;;;;;20.00;15.00;;;;;5.68;81.51;98929.00;6311010;20;3558589;-63
2022/04/10 00:52:50;;;;;;;;;28.00;22.00;;;;;5.52;82.44;98938.75;6307029;20;2500298;-64
2022/04/10 00:55:19;;;;;;;;;16.00;14.00;;;;;5.26;84.61;98945.44;6283289;20;3533581;-63
2022/04/10 00:57:48;;;;;;;;;23.33;16.67;;;;;4.87;86.92;98949.22;6313066;20;3588799;-64
2022/04/10 01:00:17;;;;;;;;;13.50;13.50;;;;;4.98;88.32;98965.47;6316163;20;2812807;-63
2022/04/10 01:02:45;;;;;;;;;18.50;14.00;;;;;4.78;88.24;98961.16;6282285;20;2819067;-63
2022/04/10 01:05:14;;;;;;;;;16.67;14.33;;;;;5.02;88.52;98963.53;6282272;20;3545028;-63
2022/04/10 01:07:42;;;;;;;;;18.50;14.50;;;;;5.07;88.65;98970.31;6311982;20;2825250;-63
2022/04/10 01:10:10;;;;;;;;;18.33;14.33;;;;;5.33;87.59;98973.47;6282676;20;3547082;-63
2022/04/10 01:12:41;;;;;;;;;19.67;17.67;;;;;4.88;88.37;98971.34;6312645;20;3577300;-63
2022/04/10 01:15:09;;;;;;;;;17.00;14.33;;;;;5.25;87.95;98965.88;6312050;20;3551304;-63
2022/04/10 01:17:39;;;;;;;;;73.00;55.00;;;;;5.22;85.26;98960.72;6314094;20;3648268;-63
2022/04/10 01:20:10;;;;;;;;;30.00;26.00;;;;;5.45;85.13;98972.84;6311636;20;2827334;-63
2022/04/10 01:22:38;;;;;;;;;21.00;20.50;;;;;5.64;83.47;98987.84;6282422;20;2500353;-63
2022/04/10 01:25:08;;;;;;;;;23.67;16.00;;;;;5.50;81.99;98997.41;6283695;20;3575286;-63
2022/04/10 01:27:40;;;;;;;;;17.00;14.00;;;;;5.69;81.14;98991.97;6281745;20;2805629;-63
2022/04/10 01:30:13;;;;;;;;;17.00;17.00;;;;;5.61;80.32;98993.31;6279605;20;3558732;-63
2022/04/10 01:32:42;;;;;;;;;17.33;17.00;;;;;5.34;82.31;99001.78;6313487;20;3547225;-63
2022/04/10 01:35:10;;;;;;;;;17.00;14.00;;;;;5.41;81.77;98997.88;6311086;20;3540839;-63
2022/04/10 01:37:41;;;;;;;;;22.00;19.67;;;;;5.49;81.59;99003.66;6310329;20;3560638;-63
2022/04/10 01:40:10;;;;;;;;;14.00;14.00;;;;;5.51;80.54;98998.28;6280221;20;2794034;-63
2022/04/10 01:42:39;;;;;;;;;19.00;18.00;;;;;5.42;80.89;99002.25;6283698;20;3560677;-63
2022/04/10 01:45:08;;;;;;;;;19.33;18.00;;;;;5.38;80.27;99005.16;6310998;20;3555481;-63
2022/04/10 01:47:38;;;;;;;;;21.00;18.67;;;;;5.59;79.94;99004.06;6282505;20;3561929;-64
2022/04/10 01:50:07;;;;;;;;;21.67;15.67;;;;;5.67;79.58;98999.19;6312061;20;3559669;-63
2022/04/10 01:52:37;;;;;;;;;11.80;11.80;;;;;5.65;79.73;99006.38;6338400;20;2791089;-63
2022/04/10 01:55:06;;;;;;;;;10.00;9.00;;;;;5.56;79.95;99006.88;6283014;20;2769120;-62
2022/04/10 01:57:34;;;;;;;;;7.00;7.00;;;;;5.70;79.29;99000.81;6279796;20;2728485;-63
2022/04/10 02:00:07;;;;;;;;;7.00;7.00;;;;;5.23;80.71;99006.81;6321988;20;1803398;-63
2022/04/10 02:02:35;;;;;;;;;10.00;7.00;;;;;5.31;81.86;99007.28;6282103;20;2763344;-63
2022/04/10 02:05:04;;;;;;;;;10.50;7.00;;;;;5.38;80.62;99008.69;6279695;20;2754731;-63
2022/04/10 02:07:32;;;;;;;;;7.25;6.50;;;;;5.52;79.85;99015.09;6300813;20;1809779;-63
2022/04/10 02:10:00;;;;;;;;;9.50;6.50;;;;;5.46;79.67;99016.28;6314162;20;2744093;-63
2022/04/10 02:12:28;;;;;;;;;9.00;5.00;;;;;5.32;79.71;99017.00;6317395;20;2748238;-63
2022/04/10 02:14:59;;;;;;;;;7.00;6.00;;;;;5.43;79.16;99017.31;6357241;20;2579421;-63
2022/04/10 02:17:28;;;;;;;;;7.00;7.00;;;;;5.37;79.42;99019.41;6304282;20;1810723;-63
2022/04/10 02:19:56;;;;;;;;;6.50;6.50;;;;;5.44;79.21;99021.69;6314322;20;2748217;-63
2022/04/10 02:22:24;;;;;;;;;6.00;6.00;;;;;5.02;81.72;99020.25;6333171;20;1818843;-63
2022/04/10 02:24:53;;;;;;;;;7.00;6.00;;;;;5.10;80.71;99021.66;6330262;20;1819267;-64
2022/04/10 02:27:21;;;;;;;;;10.00;6.00;;;;;5.13;80.43;99018.84;6310705;20;2765992;-64
2022/04/10 02:29:49;;;;;;;;;7.00;7.00;;;;;5.20;79.95;99021.13;6283366;20;2732568;-63
2022/04/10 02:32:16;;;;;;;;;7.50;7.50;;;;;5.13;80.36;99025.03;6311922;20;2745094;-63
2022/04/10 02:34:44;;;;;;;;;7.00;7.00;;;;;4.94;81.32;99014.44;6284745;20;2730460;-63
2022/04/10 02:37:12;;;;;;;;;7.50;6.00;;;;;5.11;80.79;99026.03;6315125;20;2748209;-63
2022/04/10 02:39:41;;;;;;;;;6.50;6.00;;;;;5.15;80.09;99032.94;6331683;20;1814949;-63
2022/04/10 02:42:08;;;;;;;;;8.50;6.00;;;;;5.14;80.09;99037.41;6314251;20;2756702;-63
2022/04/10 02:44:38;;;;;;;;;5.00;5.00;;;;;5.13;80.48;99045.44;6301769;20;1835748;-63
2022/04/10 02:47:06;;;;;;;;;5.00;5.00;;;;;5.09;80.74;99043.91;6309917;20;2754446;-63
2022/04/10 02:49:34;;;;;;;;;5.00;5.00;;;;;4.94;80.99;99046.34;6280835;20;2756594;-64
2022/04/10 02:52:03;;;;;;;;;6.75;5.00;;;;;4.86;81.31;99042.34;6328552;20;1819099;-64
2022/04/10 02:54:32;;;;;;;;;8.75;6.00;;;;;4.79;81.51;99041.78;6332654;20;1827631;-63
2022/04/10 02:57:00;;;;;;;;;5.50;5.00;;;;;4.88;81.52;99053.78;6330306;20;1812714;-64
2022/04/10 02:59:29;;;;;;;;;5.50;5.50;;;;;4.50;82.88;99049.38;6327021;20;1819680;-63
2022/04/10 03:01:57;;;;;;;;;7.75;3.00;;;;;4.88;81.76;99045.81;6329313;20;1825426;-64
2022/04/10 03:04:25;;;;;;;;;10.00;6.00;;;;;4.57;82.33;99053.44;6312958;20;2765958;-63
2022/04/10 03:06:54;;;;;;;;;8.00;6.00;;;;;4.85;81.06;99060.13;6296403;20;1825367;-63
2022/04/10 03:09:22;;;;;;;;;7.25;3.00;;;;;4.59;81.90;99072.84;6329891;20;1811890;-63
2022/04/10 03:11:50;;;;;;;;;8.00;6.33;;;;;4.95;81.25;99069.38;6311206;20;3462843;-64
2022/04/10 03:14:19;;;;;;;;;8.25;5.00;;;;;4.78;81.48;99064.00;6298830;20;1810712;-64
2022/04/10 03:16:46;;;;;;;;;8.00;5.33;;;;;4.82;81.07;99057.63;6314330;20;3463829;-63
2022/04/10 03:19:14;;;;;;;;;3.00;3.00;;;;;4.56;82.07;99067.69;6282177;20;2742028;-63
2022/04/10 03:21:43;;;;;;;;;6.00;2.25;;;;;4.71;81.28;99075.84;6297854;20;1816001;-63
2022/04/10 03:24:11;;;;;;;;;7.25;5.75;;;;;4.60;80.92;99074.56;6330870;20;1818806;-64
2022/04/10 03:26:42;;;;;;;;;4.50;3.50;;;;;4.56;82.10;99074.81;6356022;20;2569065;-63
2022/04/10 03:29:13;;;;;;;;;0.00;0.00;;;;;4.40;82.66;99077.31;6319358;20;2694050;-63
2022/04/10 03:31:42;;;;;;;;;9.25;6.00;;;;;4.52;81.90;99081.19;6298118;20;1823281;-58
2022/04/10 03:34:10;;;;;;;;;8.50;5.00;;;;;4.46;82.69;99077.03;6331316;20;1829115;-58
2022/04/10 03:36:39;;;;;;;;;7.00;5.00;;;;;4.58;81.72;99084.44;6329650;20;1825338;-58
2022/04/10 03:39:07;;;;;;;;;6.00;5.00;;;;;4.39;82.35;99091.53;6329141;20;1824928;-58
2022/04/10 03:41:35;;;;;;;;;4.33;4.33;;;;;4.31;82.97;99094.53;6310199;20;3454907;-58
2022/04/10 03:44:05;;;;;;;;;4.25;4.25;;;;;4.48;82.51;99103.53;6327039;20;1819229;-58
2022/04/10 03:46:34;;;;;;;;;6.25;6.25;;;;;4.26;82.61;99100.97;6328408;20;1820155;-58
2022/04/10 03:49:01;;;;;;;;;0.00;0.00;;;;;4.22;82.51;99104.72;6315757;20;3438805;-57
2022/04/10 03:51:30;;;;;;;;;5.67;5.67;;;;;4.35;82.45;99106.75;6336811;20;1818161;-58
2022/04/10 03:53:59;;;;;;;;;5.25;5.25;;;;;4.30;82.53;99107.91;6333650;20;1820153;-58
2022/04/10 03:56:26;;;;;;;;;9.00;5.00;;;;;4.18;82.85;99102.19;6318957;20;2750244;-57
2022/04/10 03:58:55;;;;;;;;;5.00;5.00;;;;;4.23;83.17;99101.97;6305531;20;1817988;-58
2022/04/10 04:01:23;;;;;;;;;5.25;5.25;;;;;4.45;82.00;99107.22;6333714;20;1821297;-58
2022/04/10 04:03:52;;;;;;;;;5.00;5.00;;;;;4.18;82.52;99109.28;6335827;20;1816991;-59
2022/04/10 04:06:21;;;;;;;;;5.75;4.25;;;;;4.08;82.87;99107.97;6335692;20;1822271;-57
2022/04/10 04:08:49;;;;;;;;;9.00;4.75;;;;;4.12;83.01;99107.78;6336349;20;1814938;-57
2022/04/10 04:11:17;;;;;;;;;9.50;6.00;;;;;4.26;81.95;99106.31;6316974;20;2748362;-58
2022/04/10 04:13:46;;;;;;;;;24.67;14.67;;;;;4.37;81.26;99109.31;6283114;20;3557538;-55
2022/04/10 04:16:14;;;;;;;;;17.00;15.00;;;;;4.14;82.33;99111.25;6315500;20;2805578;-54
2022/04/10 04:18:42;;;;;;;;;21.33;20.67;;;;;4.52;81.03;99119.25;6286079;20;3563805;-54
2022/04/10 04:21:10;;;;;;;;;30.00;22.00;;;;;4.51;80.46;99122.88;6283419;20;2841915;-55
2022/04/10 04:23:39;;;;;;;;;22.67;21.00;;;;;4.41;80.89;99116.25;6283695;20;3569225;-55
2022/04/10 04:26:10;;;;;;;;;20.20;13.00;;;;;4.23;81.28;99133.00;6308688;20;2795077;-55
2022/04/10 04:28:38;;;;;;;;;21.67;15.67;;;;;4.33;81.32;99126.34;6283172;20;3569055;-55
2022/04/10 04:31:06;;;;;;;;;13.00;13.00;;;;;4.55;81.26;99129.75;6314978;20;2796088;-54
2022/04/10 04:33:34;;;;;;;;;15.00;12.00;;;;;4.38;80.37;99135.00;6286068;20;2776387;-56
2022/04/10 04:36:03;;;;;;;;;16.33;13.00;;;;;4.81;78.90;99133.84;6284666;20;2795159;-56
2022/04/10 04:38:31;;;;;;;;;15.00;12.50;;;;;4.65;80.00;99139.97;6314772;20;2796064;-55
2022/04/10 04:40:59;;;;;;;;;12.00;9.50;;;;;4.56;79.84;99147.44;6304453;20;1831534;-54
2022/04/10 04:43:27;;;;;;;;;13.00;7.00;;;;;4.47;80.06;99142.53;6321361;20;2653426;-53
2022/04/10 04:45:55;;;;;;;;;14.00;11.00;;;;;4.35;80.71;99137.78;6312972;20;2779430;-53
2022/04/10 04:48:23;;;;;;;;;6.33;3.00;;;;;4.55;79.71;99151.00;6289823;20;3438781;-55
2022/04/10 04:50:51;;;;;;;;;10.00;7.00;;;;;4.98;79.08;99143.72;6333313;20;1820155;-56
2022/04/10 04:53:20;;;;;;;;;9.50;7.50;;;;;5.43;77.03;99149.56;6332929;20;1818059;-56
2022/04/10 04:55:49;;;;;;;;;5.00;5.00;;;;;5.03;77.06;99157.66;6334615;20;1825399;-55
2022/04/10 04:58:22;;;;;;;;;13.00;8.00;;;;;5.06;77.10;99161.97;6316240;20;2769001;-55
2022/04/10 05:00:50;;;;;;;;;10.00;9.00;;;;;5.60;75.45;99168.19;6285690;20;2758621;-54
2022/04/10 05:03:18;;;;;;;;;8.00;8.00;;;;;6.13;73.44;99174.44;6284151;20;2748202;-56
2022/04/10 05:05:46;;;;;;;;;12.00;9.00;;;;;5.72;74.73;99166.75;6280709;20;2769039;-54
2022/04/10 05:08:14;;;;;;;;;10.50;8.00;;;;;7.32;69.58;99174.25;6282435;20;2761717;-55
2022/04/10 05:10:42;;;;;;;;;8.50;8.00;;;;;7.03;69.39;99179.44;6302015;20;1812288;-57
2022/04/10 05:13:11;;;;;;;;;6.00;5.00;;;;;6.44;71.34;99186.19;6334620;20;1825393;-54
2022/04/10 05:15:39;;;;;;;;;7.00;7.00;;;;;6.24;71.94;99189.88;6315636;20;2747181;-54
2022/04/10 05:18:07;;;;;;;;;11.00;7.00;;;;;6.33;72.48;99194.75;6284453;20;2769028;-54
2022/04/10 05:20:35;;;;;;;;;10.00;7.00;;;;;6.28;71.82;99197.66;6281952;20;2754415;-54
2022/04/10 05:23:03;;;;;;;;;8.25;8.25;;;;;6.18;72.79;99192.88;6302869;20;1800031;-54
2022/04/10 05:25:31;;;;;;;;;6.00;6.00;;;;;6.02;73.60;99195.47;6316186;20;2756558;-55
2022/04/10 05:28:01;;;;;;;;;7.00;7.00;;;;;6.83;71.17;99204.53;6334215;20;1803426;-53
2022/04/10 05:30:30;;;;;;;;;7.00;7.00;;;;;8.19;66.60;99203.97;6328020;20;1802419;-56
2022/04/10 05:32:58;;;;;;;;;6.00;4.50;;;;;7.50;67.83;99215.09;6318569;20;2750268;-53
2022/04/10 05:35:25;;;;;;;;;8.50;6.00;;;;;7.00;69.44;99211.63;6288681;20;2748168;-52
2022/04/10 05:37:53;;;;;;;;;6.50;6.50;;;;;8.09;67.85;99211.66;6319541;20;2732623;-53
2022/04/10 05:40:22;;;;;;;;;7.50;5.00;;;;;9.02;63.83;99231.03;6285374;20;2748189;-51
2022/04/10 05:42:50;;;;;;;;;5.25;4.00;;;;;9.26;62.87;99228.63;6305364;20;1824354;-56
2022/04/10 05:45:18;;;;;;;;;4.50;4.50;;;;;9.32;61.92;99224.69;6316807;20;2748341;-51
2022/04/10 05:47:46;;;;;;;;;6.00;6.00;;;;;9.15;62.44;99221.28;6289760;20;2740892;-53
2022/04/10 05:50:15;;;;;;;;;7.00;6.00;;;;;8.13;65.91;99221.19;6285871;20;2750245;-54
2022/04/10 05:52:47;;;;;;;;;4.50;4.50;;;;;8.59;63.76;99224.81;6302257;20;1815022;-54
2022/04/10 05:55:18;;;;;;;;;5.00;5.00;;;;;9.78;60.72;99232.44;6320074;20;2749329;-50
2022/04/10 05:57:46;;;;;;;;;4.00;4.00;;;;;11.17;56.67;99239.03;6285660;20;2751358;-54
2022/04/10 06:00:23;;;;;;;;;3.00;3.00;;;;;10.99;55.77;99237.66;6285568;20;2741976;-55
2022/04/10 06:02:52;;;;;;;;;3.00;3.00;;;;;10.16;57.79;99235.25;6287157;20;2751289;-54
2022/04/10 06:05:21;;;;;;;;;4.00;4.00;;;;;9.43;58.79;99236.47;6285307;20;2756552;-56
2022/04/10 06:07:50;;;;;;;;;8.00;5.75;;;;;9.63;58.80;99236.97;6311986;20;1817080;-55
2022/04/10 06:10:18;;;;;;;;;6.00;3.50;;;;;11.34;55.29;99250.41;6319824;20;2746167;-56
2022/04/10 06:12:45;;;;;;;;;4.50;4.50;;;;;13.76;48.85;99255.25;6289881;20;2752340;-56
2022/04/10 06:15:17;;;;;;;;;4.00;4.00;;;;;13.05;50.26;99252.78;6289224;20;2750538;-56
2022/04/10 06:17:45;;;;;;;;;4.50;4.50;;;;;12.03;53.32;99262.41;6290087;20;2746113;-55
2022/04/10 06:20:13;;;;;;;;;5.00;4.00;;;;;12.10;52.13;99261.94;6287427;20;2732546;-57
2022/04/10 06:22:41;;;;;;;;;4.00;4.00;;;;;10.71;53.93;99255.69;6288464;20;2748204;-54
2022/04/10 06:25:09;;;;;;;;;6.00;3.00;;;;;12.69;50.52;99262.78;6285660;20;2753470;-54
2022/04/10 06:27:37;;;;;;;;;5.50;4.00;;;;;12.55;51.56;99262.13;6287328;20;2742995;-57
2022/04/10 06:30:06;;;;;;;;;4.00;4.00;;;;;13.80;48.58;99265.69;6286823;20;2744063;-55
2022/04/10 06:32:33;;;;;;;;;6.50;5.00;;;;;14.78;45.75;99272.00;6288497;20;2739834;-52
2022/04/10 06:35:01;;;;;;;;;4.50;3.50;;;;;15.60;42.58;99285.53;6288741;20;2751315;-54
2022/04/10 06:37:29;;;;;;;;;4.00;3.00;;;;;15.41;42.62;99280.91;6288031;20;2739870;-57
2022/04/10 06:39:57;;;;;;;;;4.00;4.00;;;;;14.15;44.63;99279.97;6283474;20;2754418;-54
2022/04/10 06:42:24;;;;;;;;;5.50;5.50;;;;;15.96;41.99;99286.81;6291205;20;2737908;-57
2022/04/10 06:44:52;;;;;;;;;4.00;4.00;;;;;16.57;39.34;99284.91;6287622;20;2747175;-57
2022/04/10 06:47:20;;;;;;;;;6.00;5.00;;;;;17.82;36.30;99293.78;6287785;20;2748244;-58
2022/04/10 06:49:47;;;;;;;;;2.00;2.00;;;;;18.64;35.40;99295.56;6288677;20;2724343;-58
2022/04/10 06:52:15;;;;;;;;;6.00;6.00;;;;;17.64;36.54;99299.16;6287942;20;2736717;-57
2022/04/10 06:54:43;;;;;;;;;5.00;5.00;;;;;13.02;43.89;99290.75;6289430;20;2740870;-57
2022/04/10 06:57:10;;;;;;;;;4.00;4.00;;;;;11.53;49.25;99290.25;6285914;20;2754442;-57
2022/04/10 06:59:38;;;;;;;;;4.00;4.00;;;;;10.73;51.18;99283.28;6291398;20;2747210;-55
2022/04/10 07:02:06;;;;;;;;;3.00;3.00;;;;;10.97;50.79;99285.25;6289577;20;2727339;-52
2022/04/10 07:04:34;;;;;;;;;4.00;4.00;;;;;11.59;50.60;99288.00;6287409;20;2732577;-55
2022/04/10 07:07:03;;;;;;;;;5.00;4.00;;;;;11.34;50.43;99290.72;6285303;20;2756504;-54
2022/04/10 07:09:31;;;;;;;;;5.25;4.25;;;;;10.53;52.77;99283.78;6306106;20;1808692;-53
2022/04/10 07:11:59;;;;;;;;;5.00;5.00;;;;;10.72;51.55;99297.69;6316554;20;2750301;-53
2022/04/10 07:14:27;;;;;;;;;5.50;4.00;;;;;10.74;52.60;99295.78;6286768;20;2748180;-54
2022/04/10 07:16:55;;;;;;;;;4.50;3.00;;;;;11.28;50.49;99305.44;6285955;20;2746074;-53
2022/04/10 07:19:22;;;;;;;;;4.00;4.00;;;;;10.65;51.49;99296.38;6288730;20;2749195;-53
2022/04/10 07:24:36;;;;;;;;;4.00;4.00;;;;;14.32;44.62;99319.03;6287505;20;2756795;-56
2022/04/10 07:27:04;;;;;;;;;8.00;7.00;;;;;15.59;41.54;99327.97;6276195;20;2728430;-55
2022/04/10 07:29:34;;;;;;;;;5.00;4.80;;;;;13.66;44.32;99319.88;6311793;20;2747209;-59
2022/04/10 07:32:03;;;;;;;;;5.00;4.00;;;;;11.97;48.07;99315.78;6314856;20;2738929;-60
2022/04/10 07:34:31;;;;;;;;;4.00;4.00;;;;;11.11;50.32;99319.19;6255454;20;2752385;-59
2022/04/10 07:36:59;;;;;;;;;7.00;5.00;;;;;11.77;49.25;99317.19;6287076;20;2748254;-58
2022/04/10 07:39:27;;;;;;;;;4.50;4.50;;;;;11.69;49.77;99314.22;6284353;20;2731502;-60
2022/04/10 07:41:54;;;;;;;;;3.00;3.00;;;;;11.42;48.84;99324.13;6284896;20;2756500;-58
2022/04/10 07:44:22;;;;;;;;;5.00;4.00;;;;;11.33;50.48;99327.50;6284177;20;2747234;-60
2022/04/10 07:49:36;;;;;;;;;8.00;5.00;;;;;11.52;49.45;99334.25;6295837;20;2620133;-59
2022/04/10 07:52:04;;;;;;;;;6.00;5.00;;;;;12.16;48.29;99332.28;6284581;20;2750388;-60
2022/04/10 07:54:32;;;;;;;;;6.00;5.00;;;;;12.27;48.90;99332.38;6282039;20;2747216;-60
2022/04/10 07:57:00;;;;;;;;;4.50;4.00;;;;;12.06;48.22;99336.66;6286039;20;2737822;-60
2022/04/10 07:59:28;;;;;;;;;4.00;4.00;;;;;11.48;48.99;99344.38;6282273;20;2747121;-61
2022/04/10 08:01:56;;;;;;;;;4.00;4.00;;;;;11.53;48.16;99344.91;6284535;20;2754468;-60
2022/04/10 08:04:24;;;;;;;;;3.50;3.50;;;;;11.18;48.40;99342.84;6280823;20;2747284;-60
2022/04/10 08:06:52;;;;;;;;;4.00;4.00;;;;;12.25;48.67;99345.09;6285868;20;2750321;-60
2022/04/10 08:09:20;;;;;;;;;7.00;5.00;;;;;12.14;47.03;99347.72;6286114;20;2748201;-59
2022/04/10 08:11:47;;;;;;;;;3.00;3.00;;;;;12.28;46.22;99342.16;6281343;20;2752323;-60
2022/04/10 08:14:15;;;;;;;;;5.00;4.00;;;;;12.21;46.39;99338.19;6283403;20;2752491;-60
2022/04/10 08:16:43;;;;;;;;;7.00;5.00;;;;;12.69;46.50;99348.97;6281844;20;2747363;-60
2022/04/10 08:19:11;;;;;;;;;5.00;5.00;;;;;12.61;45.57;99346.00;6284759;20;2739901;-59
2022/04/10 08:21:39;;;;;;;;;5.50;5.50;;;;;12.45;45.14;99351.69;6282440;20;2744049;-60
2022/04/10 08:24:09;;;;;;;;;9.00;9.00;;;;;12.36;46.66;99346.13;6275701;20;2780582;-61
2022/04/10 08:26:37;;;;;;;;;4.00;4.00;;;;;12.43;45.64;99348.25;6285471;20;2744524;-59
2022/04/10 08:29:05;;;;;;;;;5.00;5.00;;;;;12.61;45.96;99361.28;6283462;20;2736776;-60
2022/04/10 08:31:34;;;;;;;;;4.40;4.00;;;;;12.66;45.90;99359.09;6306151;20;2753462;-60
2022/04/10 08:34:02;;;;;;;;;3.00;3.00;;;;;12.69;46.26;99357.06;6284594;20;2730663;-60
2022/04/10 08:36:32;;;;;;;;;6.00;5.50;;;;;12.80;45.48;99358.94;6286158;20;2740946;-54
2022/04/10 08:38:59;;;;;;;;;5.50;5.50;;;;;12.54;44.69;99360.06;6282134;20;2745072;-56
2022/04/10 08:41:31;;;;;;;;;10.00;7.50;;;;;12.88;44.82;99351.13;6282123;20;2750312;-56
2022/04/10 08:44:04;;;;;;;;;5.50;4.00;;;;;13.66;42.70;99348.72;6278256;20;2729576;-57
2022/04/10 08:46:34;;;;;;;;;4.00;4.00;;;;;13.03;44.21;99354.47;6280441;20;2729504;-57
2022/04/10 08:49:03;;;;;;;;;4.00;4.00;;;;;12.91;45.49;99364.34;6278633;20;2747179;-56
2022/04/10 08:51:31;;;;;;;;;5.00;5.00;;;;;13.17;44.64;99365.06;6281494;20;2741932;-57
2022/04/10 08:54:00;;;;;;;;;9.00;9.00;;;;;13.31;42.41;99361.31;6279665;20;2754460;-57
2022/04/10 08:56:28;;;;;;;;;8.00;8.00;;;;;13.92;43.44;99350.16;6280535;20;2750247;-57
2022/04/10 08:58:56;;;;;;;;;1.00;1.00;;;;;14.05;41.58;99355.44;6280297;20;2735744;-57
2022/04/10 09:01:24;;;;;;;;;4.50;4.50;;;;;14.38;40.84;99353.66;6279877;20;2741939;-57
2022/04/10 09:03:52;;;;;;;;;5.00;5.00;;;;;15.07;39.63;99358.69;6282599;20;2727365;-57
2022/04/10 09:06:20;;;;;;;;;5.00;5.00;;;;;13.76;41.44;99365.88;6279602;20;2747152;-57
2022/04/10 09:08:48;;;;;;;;;5.00;5.00;;;;;13.52;42.82;99360.59;6282209;20;2751365;-57
2022/04/10 09:11:16;;;;;;;;;5.00;5.00;;;;;12.66;44.20;99367.19;6279402;20;2748167;-57
2022/04/10 09:13:47;;;;;;;;;5.50;5.50;;;;;12.20;44.48;99363.41;6283759;20;2738814;-58
2022/04/10 09:16:22;;;;;;;;;5.00;4.00;;;;;12.30;43.39;99363.59;6280144;20;2756540;-57
2022/04/10 09:19:06;;;;;;;;;4.00;4.00;;;;;11.70;45.61;99353.59;6281519;20;2751312;-57
2022/04/10 09:21:39;;;;;;;;;7.00;5.00;;;;;13.26;44.72;99358.09;6280053;20;2748168;-56
2022/04/10 09:24:13;;;;;;;;;4.00;4.00;;;;;12.87;44.18;99357.47;6277056;20;2730535;-57
2022/04/10 09:26:50;;;;;;;;;9.00;6.00;;;;;13.17;44.47;99359.66;6280977;20;2751334;-56
2022/04/10 09:29:21;;;;;;;;;8.00;7.00;;;;;13.46;45.34;99355.72;6278175;20;2732565;-58
2022/04/10 09:31:52;;;;;;;;;5.00;5.00;;;;;13.77;44.67;99364.88;6280579;20;2740909;-57
2022/04/10 09:34:26;;;;;;;;;5.50;5.50;;;;;13.91;43.34;99355.72;6279547;20;2740053;-56
2022/04/10 09:37:15;;;;;;;;;3.00;3.00;;;;;13.22;41.90;99362.00;6282068;20;2738879;-57
2022/04/10 09:39:44;;;;;;;;;5.00;5.00;;;;;12.13;43.70;99362.13;6279695;20;2749246;-55
2022/04/10 09:42:14;;;;;;;;;2.00;2.00;;;;;12.12;41.75;99363.09;6279440;20;2744102;-54
2022/04/10 09:45:01;;;;;;;;;4.00;2.00;;;;;13.08;40.47;99351.41;6278547;20;2750752;-53
2022/04/10 09:47:29;;;;;;;;;5.00;5.00;;;;;12.61;44.29;99359.47;6282040;20;2737741;-54
2022/04/10 09:50:06;;;;;;;;;5.00;5.00;;;;;12.25;45.66;99360.38;6275755;20;2739878;-58
2022/04/10 09:52:37;;;;;;;;;6.00;6.00;;;;;11.97;46.59;99357.00;6277874;20;2740903;-53
2022/04/10 09:55:08;;;;;;;;;6.00;6.00;;;;;12.01;44.82;99363.03;6280718;20;2740370;-55
2022/04/10 09:57:37;;;;;;;;;2.00;2.00;;;;;11.86;42.26;99359.63;6279119;20;2748293;-53
2022/04/10 10:00:07;;;;;;;;;5.00;4.00;;;;;12.43;41.75;99364.41;6276599;20;2749222;-54
2022/04/10 10:02:35;;;;;;;;;3.00;3.00;;;;;12.26;43.73;99359.41;6277169;20;2733629;-56
2022/04/10 10:05:03;;;;;;;;;3.00;3.00;;;;;12.40;42.75;99358.38;6277605;20;2753429;-58
2022/04/10 10:07:33;;;;;;;;;4.00;4.00;;;;;13.04;41.13;99355.34;6278627;20;2738333;-59
2022/04/10 10:10:03;;;;;;;;;4.00;4.00;;;;;13.89;40.55;99354.97;6274404;20;2747278;-58
2022/04/10 10:12:35;;;;;;;;;6.86;6.86;;;;;13.47;40.49;99357.41;6317493;20;1794246;-57
2022/04/10 10:15:04;;;;;;;;;2.50;1.00;;;;;13.52;40.57;99352.50;6310459;20;2725293;-59
2022/04/10 10:17:32;;;;;;;;;5.00;4.00;;;;;13.78;41.00;99354.00;6277396;20;2754491;-59
2022/04/10 10:20:00;;;;;;;;;4.00;4.00;;;;;14.51;40.78;99357.06;6272079;20;2747107;-59
2022/04/10 10:22:28;;;;;;;;;5.00;5.00;;;;;14.55;41.64;99355.00;6278599;20;2745190;-59
2022/04/10 10:25:11;;;;;;;;;5.00;5.00;;;;;13.64;42.44;99358.75;6275984;20;2747185;-59
2022/04/10 10:28:12;;;;;;;;;2.00;2.00;;;;;13.19;42.99;99354.13;6280455;20;2746077;-59
2022/04/10 10:31:00;;;;;;;;;3.50;3.50;;;;;13.68;42.06;99358.41;6276428;20;2746150;-59
2022/04/10 10:33:30;;;;;;;;;5.00;4.00;;;;;12.38;42.90;99358.50;6279492;20;2751331;-59
2022/04/10 10:36:01;;;;;;;;;9.60;8.60;;;;;12.70;43.49;99353.38;6300485;20;2747700;-59
2022/04/10 10:38:31;;;;;;;;;5.50;4.00;;;;;12.83;43.63;99355.16;6310455;20;2747121;-59
2022/04/10 10:41:40;;;;;;;;;5.50;3.50;;;;;13.91;42.09;99353.00;6279942;20;2752337;-58
2022/04/10 10:44:25;;;;;;;;;7.50;6.50;;;;;12.83;44.66;99356.00;6281096;20;2738850;-58
2022/04/10 10:47:03;;;;;;;;;7.00;7.00;;;;;12.66;46.49;99364.50;6278349;20;2732564;-57
2022/04/10 10:49:54;;;;;;;;;7.00;7.00;;;;;13.28;44.88;99358.84;6275396;20;2733625;-58
2022/04/10 10:52:23;;;;;;;;;5.50;5.00;;;;;12.75;45.33;99366.50;6275876;20;2748204;-60
2022/04/10 10:54:58;;;;;;;;;6.00;6.00;;;;;12.65;45.02;99368.19;6274162;20;2744018;-59
2022/04/10 10:57:43;;;;;;;;;5.50;5.50;;;;;12.85;45.67;99359.44;6277747;20;2743035;-59
2022/04/10 11:00:22;;;;;;;;;3.00;2.00;;;;;12.83;43.95;99361.41;6273949;20;2744241;-58
2022/04/10 11:02:53;;;;;;;;;16.00;15.00;;;;;12.58;44.94;99361.53;6275024;20;3537723;-59
2022/04/10 11:05:25;;;;;;;;;10.00;9.00;;;;;11.90;44.66;99361.13;6303679;20;2762842;-58
2022/04/10 11:08:10;;;;;;;;;3.00;3.00;;;;;12.25;44.32;99363.94;6294168;20;1814965;-59
2022/04/10 11:11:05;;;;;;;;;3.00;3.00;;;;;12.29;44.07;99346.56;6308619;20;2752496;-59
2022/04/10 11:13:42;;;;;;;;;5.50;5.00;;;;;11.90;44.45;99352.19;6275603;20;2771211;-55
2022/04/10 11:16:14;;;;;;;;;9.33;9.33;;;;;11.94;44.76;99351.84;6276363;20;2762751;-53
2022/04/10 11:18:56;;;;;;;;;78.67;60.67;;;;;12.05;44.49;99349.22;6304954;20;3662746;-54
2022/04/10 11:21:27;;;;;;;;;54.67;45.67;;;;;12.68;43.87;99346.38;6280064;20;3588791;-59
2022/04/10 11:24:00;;;;;;;;;23.67;20.33;;;;;12.37;44.87;99351.38;6271357;20;3566034;-57
2022/04/10 11:26:36;;;;;;;;;22.50;22.50;;;;;13.10;43.07;99341.38;6302461;20;2841944;-60
2022/04/10 11:29:07;;;;;;;;;11.00;11.00;;;;;13.89;42.59;99346.88;6271672;20;2788851;-60
2022/04/10 11:31:47;;;;;;;;;9.00;9.00;;;;;14.22;40.86;99336.03;6275496;20;2764843;-59
2022/04/10 11:34:25;;;;;;;;;11.60;10.40;;;;;13.74;42.99;99347.09;6303784;20;2789902;-60